createdAt,value
2023-04-26T00:00:30.374Z,7.3857
2023-04-26T00:01:33.345Z,7.4132
2023-04-26T00:02:36.376Z,7.3193
2023-04-26T00:03:39.298Z,7.3257
2023-04-26T00:04:42.249Z,7.3916
2023-04-26T00:05:45.132Z,7.3808
2023-04-26T00:06:48.130Z,7.3641
2023-04-26T00:07:50.936Z,7.3674
2023-04-26T00:08:54.238Z,7.3787
2023-04-26T00:09:56.868Z,7.3674
2023-04-26T00:10:59.799Z,7.3777
2023-04-26T00:12:02.794Z,7.3245
2023-04-26T00:13:05.747Z,7.3198
2023-04-26T00:14:08.711Z,7.3015
2023-04-26T00:15:11.644Z,7.3237
2023-04-26T00:16:14.576Z,7.2655
2023-04-26T00:17:17.520Z,7.1858
2023-04-26T00:18:20.478Z,7.1881
2023-04-26T00:19:23.413Z,7.1347
2023-04-26T00:20:26.420Z,7.0844
2023-04-26T00:21:29.366Z,7.1493
2023-04-26T00:22:32.283Z,7.1369
2023-04-26T00:23:35.219Z,7.2610
2023-04-26T00:24:38.176Z,7.2226
2023-04-26T00:25:41.152Z,7.2920
2023-04-26T00:26:44.068Z,7.2524
2023-04-26T00:27:47.026Z,7.1951
2023-04-26T00:28:50.264Z,7.1127
2023-04-26T00:29:52.915Z,7.2023
2023-04-26T00:30:55.891Z,7.2407
2023-04-26T00:31:58.947Z,7.1930
2023-04-26T00:33:01.800Z,7.0587
2023-04-26T00:34:04.718Z,7.1417
2023-04-26T00:35:07.706Z,7.1178
2023-04-26T00:36:10.617Z,7.1445
2023-04-26T00:37:13.576Z,7.1427
2023-04-26T00:38:16.517Z,7.1168
2023-04-26T00:39:19.465Z,7.1156
2023-04-26T00:40:22.451Z,7.0800
2023-04-26T00:41:25.374Z,7.0020
2023-04-26T00:42:28.390Z,7.0303
2023-04-26T00:43:31.260Z,6.8851
2023-04-26T00:44:34.219Z,6.9543
2023-04-26T00:45:37.235Z,6.8746
2023-04-26T00:46:40.111Z,6.9835
2023-04-26T00:47:43.082Z,6.9662
2023-04-26T00:48:46.009Z,6.9833
2023-04-26T00:49:48.983Z,7.0005
2023-04-26T00:50:51.946Z,7.0069
2023-04-26T00:51:54.913Z,6.8490
2023-04-26T00:52:57.817Z,6.7828
2023-04-26T00:54:00.764Z,6.8411
2023-04-26T00:55:03.755Z,6.8543
2023-04-26T00:56:06.837Z,6.8259
2023-04-26T00:57:09.641Z,6.6460
2023-04-26T00:58:12.664Z,6.7725
2023-04-26T00:59:15.530Z,6.7773
2023-04-26T01:00:18.493Z,6.7520
2023-04-26T01:01:21.637Z,6.7863
2023-04-26T01:02:24.444Z,6.7604
2023-04-26T01:03:27.495Z,6.5283
2023-04-26T01:04:30.408Z,6.5949
2023-04-26T01:05:33.275Z,6.3490
2023-04-26T01:06:36.202Z,6.5084
2023-04-26T01:07:39.149Z,6.4991
2023-04-26T01:08:42.075Z,6.5581
2023-04-26T01:09:45.018Z,6.4408
2023-04-26T01:10:48.008Z,6.4897
2023-04-26T01:11:50.921Z,6.5940
2023-04-26T01:12:53.885Z,6.5164
2023-04-26T01:13:56.822Z,6.4901
2023-04-26T01:14:59.787Z,6.4905
2023-04-26T01:16:02.849Z,6.3952
2023-04-26T01:17:05.786Z,6.4032
2023-04-26T01:18:08.635Z,6.4256
2023-04-26T01:19:11.571Z,6.3385
2023-04-26T01:20:14.520Z,6.2272
2023-04-26T01:21:17.479Z,6.3759
2023-04-26T01:22:20.430Z,6.2779
2023-04-26T01:23:23.469Z,6.2241
2023-04-26T01:24:26.376Z,6.1842
2023-04-26T01:25:29.287Z,6.1647
2023-04-26T01:26:32.240Z,5.9928
2023-04-26T01:27:35.191Z,5.8539
2023-04-26T01:28:38.224Z,6.1142
2023-04-26T01:29:41.128Z,6.2109
2023-04-26T01:30:44.078Z,6.2066
2023-04-26T01:31:47.021Z,6.1992
2023-04-26T01:32:49.997Z,6.1487
2023-04-26T01:33:52.980Z,6.0961
2023-04-26T01:34:55.868Z,6.1756
2023-04-26T01:35:58.799Z,6.1255
2023-04-26T01:37:01.754Z,6.0698
2023-04-26T01:38:04.736Z,6.0152
2023-04-26T01:39:07.657Z,5.9944
2023-04-26T01:40:10.629Z,6.1280
2023-04-26T01:41:13.566Z,6.1849
2023-04-26T01:42:16.515Z,6.1520
2023-04-26T01:43:19.484Z,6.1602
2023-04-26T01:44:22.432Z,6.1703
2023-04-26T01:45:25.415Z,6.1775
2023-04-26T01:46:28.358Z,6.1269
2023-04-26T01:47:31.456Z,6.0602
2023-04-26T01:48:34.338Z,6.0000
2023-04-26T01:49:37.321Z,5.9751
2023-04-26T01:50:40.216Z,6.0546
2023-04-26T01:51:43.177Z,5.9371
2023-04-26T01:52:46.121Z,6.0536
2023-04-26T01:53:49.078Z,6.0622
2023-04-26T01:54:52.024Z,6.1066
2023-04-26T01:55:54.968Z,6.0990
2023-04-26T01:56:57.923Z,6.0162
2023-04-26T01:58:00.866Z,5.9955
2023-04-26T01:59:03.827Z,5.9733
2023-04-26T02:00:06.779Z,6.0288
2023-04-26T02:01:09.792Z,6.0193
2023-04-26T02:02:12.748Z,5.9873
2023-04-26T02:03:15.744Z,5.9778
2023-04-26T02:04:18.574Z,6.0518
2023-04-26T02:05:21.618Z,5.9792
2023-04-26T02:06:24.504Z,6.0236
2023-04-26T02:07:27.474Z,6.0339
2023-04-26T02:08:30.422Z,6.0470
2023-04-26T02:09:33.354Z,5.8178
2023-04-26T02:10:36.364Z,5.8930
2023-04-26T02:11:39.266Z,5.9476
2023-04-26T02:12:42.229Z,5.7874
2023-04-26T02:13:45.162Z,5.8330
2023-04-26T02:14:48.129Z,5.9145
2023-04-26T02:15:51.097Z,6.0937
2023-04-26T02:16:54.076Z,5.9604
2023-04-26T02:17:57.064Z,5.9037
2023-04-26T02:18:59.931Z,5.9571
2023-04-26T02:20:02.904Z,6.0045
2023-04-26T02:21:05.845Z,5.9918
2023-04-26T02:22:08.810Z,5.8804
2023-04-26T02:23:11.753Z,5.8915
2023-04-26T02:24:14.718Z,5.9799
2023-04-26T02:25:17.716Z,5.8581
2023-04-26T02:26:20.646Z,5.8876
2023-04-26T02:27:23.592Z,5.8355
2023-04-26T02:28:26.564Z,5.8856
2023-04-26T02:29:42.250Z,5.8558
2023-04-26T02:30:32.431Z,5.7508
2023-04-26T02:31:35.444Z,5.8546
2023-04-26T02:32:38.397Z,5.8168
2023-04-26T02:33:41.372Z,5.5976
2023-04-26T02:34:44.256Z,5.6103
2023-04-26T02:35:47.199Z,5.6007
2023-04-26T02:36:50.179Z,5.6457
2023-04-26T02:37:53.093Z,5.6611
2023-04-26T02:38:56.077Z,5.6407
2023-04-26T02:39:59.006Z,5.7056
2023-04-26T02:41:02.034Z,5.6148
2023-04-26T02:42:05.113Z,5.4912
2023-04-26T02:43:07.854Z,5.5029
2023-04-26T02:44:10.826Z,5.4454
2023-04-26T02:45:13.784Z,5.5187
2023-04-26T02:46:17.394Z,5.4885
2023-04-26T02:47:19.657Z,5.4405
2023-04-26T02:48:22.622Z,5.5395
2023-04-26T02:49:25.599Z,5.4670
2023-04-26T02:50:28.582Z,5.4709
2023-04-26T02:51:31.461Z,5.4583
2023-04-26T02:52:34.446Z,5.4746
2023-04-26T02:53:37.378Z,5.4064
2023-04-26T02:54:40.410Z,5.4088
2023-04-26T02:55:43.284Z,5.4043
2023-04-26T02:56:46.236Z,5.3677
2023-04-26T02:57:49.184Z,5.2922
2023-04-26T02:58:52.368Z,5.2482
2023-04-26T02:59:55.095Z,5.3928
2023-04-26T03:02:01.029Z,5.1632
2023-04-26T03:03:04.047Z,5.0264
2023-04-26T03:04:07.079Z,5.1063
2023-04-26T03:05:09.900Z,4.8893
2023-04-26T03:06:12.799Z,4.8581
2023-04-26T03:07:15.781Z,4.9865
2023-04-26T03:08:18.682Z,4.8764
2023-04-26T03:09:21.645Z,4.9074
2023-04-26T03:10:24.593Z,4.8290
2023-04-26T03:11:27.573Z,4.7115
2023-04-26T03:12:30.484Z,4.6704
2023-04-26T03:13:33.498Z,4.6369
2023-04-26T03:14:36.395Z,4.4557
2023-04-26T03:15:39.359Z,4.5506
2023-04-26T03:16:42.402Z,4.3017
2023-04-26T03:17:45.269Z,4.4522
2023-04-26T03:18:48.218Z,4.4878
2023-04-26T03:19:51.144Z,4.4485
2023-04-26T03:20:54.116Z,4.4674
2023-04-26T03:21:57.049Z,4.4122
2023-04-26T03:23:00.011Z,4.3916
2023-04-26T03:24:02.963Z,4.4200
2023-04-26T03:25:05.981Z,4.3023
2023-04-26T03:26:08.848Z,4.2639
2023-04-26T03:27:11.812Z,4.4177
2023-04-26T03:28:14.814Z,4.4157
2023-04-26T03:29:17.690Z,4.3551
2023-04-26T03:30:20.645Z,4.2704
2023-04-26T03:31:23.706Z,4.3623
2023-04-26T03:32:26.576Z,4.4428
2023-04-26T03:33:29.505Z,4.3528
2023-04-26T03:34:32.444Z,4.2250
2023-04-26T03:35:35.393Z,4.2439
2023-04-26T03:36:38.408Z,4.2554
2023-04-26T03:37:41.293Z,3.9964
2023-04-26T03:38:44.285Z,4.2372
2023-04-26T03:39:47.203Z,4.1788
2023-04-26T03:40:50.168Z,4.2803
2023-04-26T03:41:53.123Z,4.3121
2023-04-26T03:42:56.087Z,4.2608
2023-04-26T03:43:59.005Z,4.3078
2023-04-26T03:45:01.962Z,4.2587
2023-04-26T03:46:05.014Z,4.1172
2023-04-26T03:47:07.880Z,4.0956
2023-04-26T03:48:10.874Z,4.1431
2023-04-26T03:49:13.792Z,4.1534
2023-04-26T03:50:16.723Z,4.2865
2023-04-26T03:51:19.685Z,4.1010
2023-04-26T03:52:22.623Z,4.1443
2023-04-26T03:53:25.589Z,4.1205
2023-04-26T03:54:28.538Z,4.1154
2023-04-26T03:55:31.501Z,4.2263
2023-04-26T03:56:34.472Z,4.2248
2023-04-26T03:57:37.396Z,4.1400
2023-04-26T03:58:40.395Z,4.0815
2023-04-26T03:59:43.304Z,4.0954
2023-04-26T04:00:46.243Z,4.0860
2023-04-26T04:01:49.204Z,4.1201
2023-04-26T04:02:52.289Z,4.0965
2023-04-26T04:03:55.463Z,4.0051
2023-04-26T04:04:58.222Z,3.9186
2023-04-26T04:06:01.210Z,4.0375
2023-04-26T04:07:03.973Z,3.8214
2023-04-26T04:08:07.157Z,3.8617
2023-04-26T04:09:09.918Z,3.8335
2023-04-26T04:10:12.855Z,3.8625
2023-04-26T04:11:16.904Z,3.7904
2023-04-26T04:12:18.854Z,3.6314
2023-04-26T04:13:21.710Z,3.7559
2023-04-26T04:14:24.692Z,3.8479
2023-04-26T04:15:27.682Z,3.9180
2023-04-26T04:16:30.672Z,3.7594
2023-04-26T04:17:33.563Z,3.7674
2023-04-26T04:18:36.627Z,3.7594
2023-04-26T04:19:39.458Z,3.8656
2023-04-26T04:20:42.400Z,3.9026
2023-04-26T04:21:45.376Z,3.8736
2023-04-26T04:22:48.301Z,3.7658
2023-04-26T04:23:51.253Z,3.8132
2023-04-26T04:24:54.243Z,3.9188
2023-04-26T04:25:57.169Z,3.8709
2023-04-26T04:27:00.126Z,3.8678
2023-04-26T04:28:03.147Z,3.8592
2023-04-26T04:29:05.989Z,3.8241
2023-04-26T04:30:08.995Z,3.9132
2023-04-26T04:31:11.975Z,3.8744
2023-04-26T04:32:14.973Z,3.8446
2023-04-26T04:33:17.890Z,3.8658
2023-04-26T04:34:20.738Z,3.8594
2023-04-26T04:35:23.709Z,3.9169
2023-04-26T04:36:26.641Z,3.8541
2023-04-26T04:37:29.640Z,3.8231
2023-04-26T04:38:32.555Z,3.8779
2023-04-26T04:39:35.502Z,3.8617
2023-04-26T04:40:38.438Z,3.8941
2023-04-26T04:41:41.425Z,3.6963
2023-04-26T04:42:44.355Z,3.7923
2023-04-26T04:43:47.343Z,3.7764
2023-04-26T04:44:50.246Z,3.8305
2023-04-26T04:45:53.362Z,3.9026
2023-04-26T04:46:56.205Z,3.8715
2023-04-26T04:47:59.146Z,3.9104
2023-04-26T04:49:02.065Z,3.9605
2023-04-26T04:50:05.027Z,3.8446
2023-04-26T04:51:07.986Z,3.9048
2023-04-26T04:52:10.923Z,3.8253
2023-04-26T04:53:13.866Z,3.8120
2023-04-26T04:54:16.883Z,3.7280
2023-04-26T04:55:19.788Z,3.8572
2023-04-26T04:56:22.737Z,3.7816
2023-04-26T04:57:25.662Z,3.8582
2023-04-26T04:58:28.620Z,3.7807
2023-04-26T04:59:31.587Z,3.8035
2023-04-26T05:00:34.611Z,3.7366
2023-04-26T05:01:37.543Z,3.8196
2023-04-26T05:02:40.658Z,3.8822
2023-04-26T05:03:43.630Z,3.8851
2023-04-26T05:04:46.459Z,3.8876
2023-04-26T05:05:49.320Z,3.8804
2023-04-26T05:06:52.231Z,3.8173
2023-04-26T05:07:55.228Z,3.8650
2023-04-26T05:08:58.186Z,3.9046
2023-04-26T05:10:01.149Z,3.9424
2023-04-26T05:11:04.083Z,3.9681
2023-04-26T05:12:07.069Z,3.9510
2023-04-26T05:13:09.972Z,3.8820
2023-04-26T05:14:12.943Z,3.9342
2023-04-26T05:15:16.012Z,4.0441
2023-04-26T05:16:18.877Z,3.9931
2023-04-26T05:17:21.805Z,4.0611
2023-04-26T05:18:24.741Z,4.0784
2023-04-26T05:19:27.719Z,3.9286
2023-04-26T05:20:30.654Z,3.9432
2023-04-26T05:21:33.610Z,4.0581
2023-04-26T05:22:36.586Z,4.0139
2023-04-26T05:23:39.542Z,3.9469
2023-04-26T05:24:42.476Z,3.9535
2023-04-26T05:25:45.477Z,3.9755
2023-04-26T05:26:48.376Z,3.9424
2023-04-26T05:27:51.383Z,3.9490
2023-04-26T05:28:54.401Z,3.9422
2023-04-26T05:29:57.251Z,4.0829
2023-04-26T05:31:00.214Z,4.0597
2023-04-26T05:32:03.230Z,4.1160
2023-04-26T05:33:06.198Z,4.1322
2023-04-26T05:34:09.067Z,4.2004
2023-04-26T05:35:12.008Z,4.2045
2023-04-26T05:36:14.962Z,4.2117
2023-04-26T05:37:17.918Z,4.3035
2023-04-26T05:38:20.844Z,4.2470
2023-04-26T05:39:23.805Z,4.2717
2023-04-26T05:40:26.779Z,4.3323
2023-04-26T05:41:29.718Z,4.4126
2023-04-26T05:42:32.718Z,4.4656
2023-04-26T05:43:35.642Z,4.4263
2023-04-26T05:44:38.593Z,4.4159
2023-04-26T05:45:41.583Z,4.4611
2023-04-26T05:46:44.522Z,4.5155
2023-04-26T05:47:47.503Z,4.5818
2023-04-26T05:48:50.403Z,4.6281
2023-04-26T05:49:53.517Z,4.6153
2023-04-26T05:50:56.327Z,4.6400
2023-04-26T05:51:59.302Z,4.6724
2023-04-26T05:53:02.268Z,4.7390
2023-04-26T05:54:05.199Z,4.7942
2023-04-26T05:55:08.164Z,4.8117
2023-04-26T05:56:11.179Z,4.8711
2023-04-26T05:57:14.136Z,4.8707
2023-04-26T05:58:17.105Z,4.9097
2023-04-26T05:59:20.071Z,4.9446
2023-04-26T06:00:22.978Z,4.9703
2023-04-26T06:01:26.025Z,4.9635
2023-04-26T06:02:28.992Z,5.0257
2023-04-26T06:03:32.082Z,5.0440
2023-04-26T06:04:34.943Z,5.1137
2023-04-26T06:05:37.735Z,5.2328
2023-04-26T06:06:40.716Z,5.1664
2023-04-26T06:07:43.637Z,5.1890
2023-04-26T06:08:46.657Z,5.2116
2023-04-26T06:09:49.572Z,5.3076
2023-04-26T06:10:52.505Z,5.3195
2023-04-26T06:11:56.274Z,5.3755
2023-04-26T06:12:58.422Z,5.4306
2023-04-26T06:14:01.364Z,5.4770
2023-04-26T06:15:04.320Z,5.4916
2023-04-26T06:16:07.267Z,5.4984
2023-04-26T06:17:10.263Z,5.5717
2023-04-26T06:18:13.151Z,5.5555
2023-04-26T06:19:16.088Z,5.6623
2023-04-26T06:20:19.076Z,5.6956
2023-04-26T06:21:22.016Z,5.7418
2023-04-26T06:22:24.922Z,5.7755
2023-04-26T06:23:27.971Z,5.8053
2023-04-26T06:24:30.871Z,5.8542
2023-04-26T06:25:33.804Z,5.9012
2023-04-26T06:26:36.728Z,5.9378
2023-04-26T06:27:39.681Z,5.9860
2023-04-26T06:28:42.626Z,6.0281
2023-04-26T06:29:45.590Z,6.0867
2023-04-26T06:30:48.639Z,6.1052
2023-04-26T06:31:51.475Z,6.1536
2023-04-26T06:32:54.513Z,6.1902
2023-04-26T06:33:57.437Z,6.2196
2023-04-26T06:35:00.366Z,6.2605
2023-04-26T06:36:03.320Z,6.3194
2023-04-26T06:37:06.340Z,6.3299
2023-04-26T06:38:09.201Z,6.3134
2023-04-26T06:39:12.120Z,6.2498
2023-04-26T06:40:15.135Z,6.3964
2023-04-26T06:41:18.017Z,6.4381
2023-04-26T06:42:20.985Z,6.5620
2023-04-26T06:43:23.899Z,6.5677
2023-04-26T06:44:26.870Z,6.3371
2023-04-26T06:45:29.821Z,6.4053
2023-04-26T06:46:32.835Z,6.7134
2023-04-26T06:47:35.793Z,6.5893
2023-04-26T06:48:38.659Z,6.6594
2023-04-26T06:49:41.629Z,6.6516
2023-04-26T06:50:44.591Z,6.7306
2023-04-26T06:51:47.522Z,6.8366
2023-04-26T06:52:50.533Z,6.9264
2023-04-26T06:53:53.686Z,7.0338
2023-04-26T06:54:57.729Z,7.0503
2023-04-26T06:55:59.289Z,7.1622
2023-04-26T06:57:02.370Z,7.2060
2023-04-26T06:58:05.184Z,7.2514
2023-04-26T06:59:08.151Z,7.2051
2023-04-26T07:00:11.107Z,7.3319
2023-04-26T07:01:14.080Z,7.4418
2023-04-26T07:02:17.043Z,7.4956
2023-04-26T07:03:20.370Z,7.5153
2023-04-26T07:04:23.271Z,7.6194
2023-04-26T07:05:26.033Z,7.6671
2023-04-26T07:06:28.740Z,7.7686
2023-04-26T07:07:31.700Z,7.8503
2023-04-26T07:08:34.763Z,7.8947
2023-04-26T07:09:37.624Z,7.9945
2023-04-26T07:10:40.544Z,8.0892
2023-04-26T07:11:43.488Z,8.1348
2023-04-26T07:12:46.595Z,8.2390
2023-04-26T07:13:49.415Z,8.3258
2023-04-26T07:14:52.363Z,8.3725
2023-04-26T07:15:55.346Z,8.5015
2023-04-26T07:16:58.260Z,8.6389
2023-04-26T07:18:01.199Z,8.7024
2023-04-26T07:19:04.108Z,8.8618
2023-04-26T07:20:07.083Z,9.0004
2023-04-26T07:21:10.045Z,9.0464
2023-04-26T07:22:13.362Z,9.1120
2023-04-26T07:23:15.897Z,9.1467
2023-04-26T07:24:18.867Z,9.2444
2023-04-26T07:25:21.790Z,9.3268
2023-04-26T07:26:24.753Z,9.4741
2023-04-26T07:27:27.688Z,9.5485
2023-04-26T07:28:30.750Z,9.6811
2023-04-26T07:29:33.598Z,9.7668
2023-04-26T07:30:36.543Z,9.8843
2023-04-26T07:31:39.497Z,9.9537
2023-04-26T07:32:42.501Z,10.0640
2023-04-26T07:33:45.586Z,10.1417
2023-04-26T07:34:48.357Z,10.2390
2023-04-26T07:35:51.247Z,10.3311
2023-04-26T07:36:54.201Z,10.4062
2023-04-26T07:37:57.152Z,10.5141
2023-04-26T07:39:00.128Z,10.4631
2023-04-26T07:40:03.110Z,10.6540
2023-04-26T07:41:05.992Z,10.7589
2023-04-26T07:42:08.918Z,10.7558
2023-04-26T07:43:11.903Z,10.8109
2023-04-26T07:44:14.838Z,10.9873
2023-04-26T07:45:17.750Z,11.0644
2023-04-26T07:46:20.737Z,11.0997
2023-04-26T07:47:23.664Z,11.1340
2023-04-26T07:48:26.582Z,11.2244
2023-04-26T07:49:29.541Z,11.2045
2023-04-26T07:50:32.479Z,11.3737
2023-04-26T07:51:35.415Z,11.4072
2023-04-26T07:52:38.361Z,11.5658
2023-04-26T07:53:41.301Z,11.6467
2023-04-26T07:54:44.291Z,11.7007
2023-04-26T07:55:47.944Z,11.6944
2023-04-26T07:56:50.126Z,11.6962
2023-04-26T07:57:53.138Z,11.9458
2023-04-26T07:58:56.023Z,11.9632
2023-04-26T07:59:58.953Z,12.0807
2023-04-26T08:01:01.909Z,12.1851
2023-04-26T08:02:04.878Z,12.1450
2023-04-26T08:03:07.998Z,12.2847
2023-04-26T08:04:11.124Z,12.0294
2023-04-26T08:05:13.955Z,12.3646
2023-04-26T08:06:16.710Z,12.2707
2023-04-26T08:07:19.550Z,12.5148
2023-04-26T08:08:22.571Z,12.4458
2023-04-26T08:09:25.455Z,12.3971
2023-04-26T08:10:28.556Z,12.3511
2023-04-26T08:11:31.397Z,12.3359
2023-04-26T08:12:34.278Z,12.4731
2023-04-26T08:13:37.272Z,12.7574
2023-04-26T08:14:40.155Z,12.7719
2023-04-26T08:15:43.114Z,12.6974
2023-04-26T08:16:46.141Z,12.9459
2023-04-26T08:17:49.012Z,13.1146
2023-04-26T08:18:51.977Z,13.1000
2023-04-26T08:19:54.866Z,13.0928
2023-04-26T08:20:57.813Z,13.2267
2023-04-26T08:22:00.792Z,13.3818
2023-04-26T08:23:03.706Z,13.1678
2023-04-26T08:24:06.646Z,13.1651
2023-04-26T08:25:09.617Z,13.4272
2023-04-26T08:26:12.560Z,13.6345
2023-04-26T08:27:15.582Z,13.8243
2023-04-26T08:28:18.451Z,13.8604
2023-04-26T08:29:21.395Z,13.8462
2023-04-26T08:30:24.356Z,14.0147
2023-04-26T08:31:27.316Z,14.0853
2023-04-26T08:32:30.249Z,14.1878
2023-04-26T08:33:33.157Z,14.2041
2023-04-26T08:34:36.099Z,14.4023
2023-04-26T08:35:39.089Z,14.2059
2023-04-26T08:36:41.993Z,14.2953
2023-04-26T08:37:44.923Z,14.4132
2023-04-26T08:38:47.895Z,14.4881
2023-04-26T08:39:50.799Z,14.5257
2023-04-26T08:40:53.791Z,14.4518
2023-04-26T08:41:56.706Z,14.5937
2023-04-26T08:42:59.729Z,14.6305
2023-04-26T08:44:02.775Z,14.8291
2023-04-26T08:45:05.626Z,14.9612
2023-04-26T08:46:08.515Z,14.9857
2023-04-26T08:47:11.452Z,15.0536
2023-04-26T08:48:14.422Z,14.9836
2023-04-26T08:49:17.337Z,15.1600
2023-04-26T08:50:20.291Z,14.9996
2023-04-26T08:51:23.416Z,15.0115
2023-04-26T08:52:26.163Z,15.1810
2023-04-26T08:53:29.122Z,15.2884
2023-04-26T08:54:32.148Z,15.3926
2023-04-26T08:55:35.051Z,15.4889
2023-04-26T08:56:37.956Z,15.2124
2023-04-26T08:57:40.947Z,15.6641
2023-04-26T08:58:43.935Z,15.8681
2023-04-26T08:59:46.805Z,15.5803
2023-04-26T09:00:49.919Z,15.6313
2023-04-26T09:01:52.751Z,16.0096
2023-04-26T09:02:55.752Z,15.9714
2023-04-26T09:03:58.881Z,16.1464
2023-04-26T09:05:01.804Z,16.1863
2023-04-26T09:06:04.614Z,16.2241
2023-04-26T09:07:07.439Z,16.4036
2023-04-26T09:08:10.396Z,16.4786
2023-04-26T09:09:13.325Z,16.5332
2023-04-26T09:10:16.260Z,16.7187
2023-04-26T09:11:19.237Z,16.5059
2023-04-26T09:12:22.157Z,16.7553
2023-04-26T09:13:25.148Z,16.5667
2023-04-26T09:14:28.081Z,16.3693
2023-04-26T09:15:30.992Z,16.0891
2023-04-26T09:16:34.089Z,16.4400
2023-04-26T09:17:37.220Z,16.7799
2023-04-26T09:18:39.837Z,16.7793
2023-04-26T09:19:42.769Z,16.9490
2023-04-26T09:20:45.728Z,16.9405
2023-04-26T09:21:48.723Z,17.1127
2023-04-26T09:22:51.644Z,17.2100
2023-04-26T09:23:54.562Z,17.2271
2023-04-26T09:24:57.557Z,17.2141
2023-04-26T09:26:00.439Z,17.2768
2023-04-26T09:27:03.403Z,17.1673
2023-04-26T09:28:06.364Z,16.9956
2023-04-26T09:29:09.294Z,17.0406
2023-04-26T09:30:12.242Z,17.1696
2023-04-26T09:31:15.237Z,17.1957
2023-04-26T09:32:18.187Z,17.1772
2023-04-26T09:33:21.134Z,17.4699
2023-04-26T09:34:24.020Z,17.4122
2023-04-26T09:35:26.967Z,17.1065
2023-04-26T09:36:29.909Z,17.2059
2023-04-26T09:37:34.386Z,17.3639
2023-04-26T09:38:35.847Z,17.1478
2023-04-26T09:39:38.768Z,17.4904
2023-04-26T09:40:41.770Z,17.4623
2023-04-26T09:41:44.680Z,17.5294
2023-04-26T09:42:47.601Z,17.3709
2023-04-26T09:43:50.733Z,17.4569
2023-04-26T09:44:53.499Z,17.3444
2023-04-26T09:45:56.453Z,17.1605
2023-04-26T09:46:59.446Z,16.9668
2023-04-26T09:48:02.376Z,17.0038
2023-04-26T09:49:05.335Z,17.3360
2023-04-26T09:50:08.285Z,17.4278
2023-04-26T09:51:11.202Z,17.2813
2023-04-26T09:52:14.144Z,17.3273
2023-04-26T09:53:17.147Z,17.3972
2023-04-26T09:54:20.053Z,17.4592
2023-04-26T09:55:34.231Z,17.3600
2023-04-26T09:56:25.961Z,17.4929
2023-04-26T09:57:28.922Z,17.6336
2023-04-26T09:58:31.836Z,17.7778
2023-04-26T09:59:34.809Z,17.5290
2023-04-26T10:00:37.751Z,17.5518
2023-04-26T10:01:40.696Z,17.6954
2023-04-26T10:02:43.732Z,17.7739
2023-04-26T10:03:46.855Z,17.4374
2023-04-26T10:04:49.678Z,17.1585
2023-04-26T10:05:52.532Z,17.4711
2023-04-26T10:06:55.520Z,17.5814
2023-04-26T10:07:58.419Z,17.7955
2023-04-26T10:09:01.366Z,17.8848
2023-04-26T10:10:04.348Z,17.7985
2023-04-26T10:11:07.268Z,17.3088
2023-04-26T10:12:10.210Z,17.8335
2023-04-26T10:13:13.302Z,17.7429
2023-04-26T10:14:16.105Z,17.6120
2023-04-26T10:15:19.095Z,17.8016
2023-04-26T10:16:22.070Z,18.2055
2023-04-26T10:17:25.018Z,18.4121
2023-04-26T10:18:27.964Z,18.6150
2023-04-26T10:19:30.869Z,18.9028
2023-04-26T10:20:33.931Z,18.7046
2023-04-26T10:21:36.754Z,18.7442
2023-04-26T10:22:39.776Z,19.0084
2023-04-26T10:23:42.648Z,18.9536
2023-04-26T10:24:45.585Z,19.4418
2023-04-26T10:25:48.553Z,19.0415
2023-04-26T10:26:51.497Z,19.4741
2023-04-26T10:27:54.436Z,19.5030
2023-04-26T10:29:02.084Z,19.7639
2023-04-26T10:30:00.327Z,19.8280
2023-04-26T10:31:03.278Z,19.9500
2023-04-26T10:32:06.346Z,20.0847
2023-04-26T10:33:09.270Z,20.1340
2023-04-26T10:34:12.227Z,19.9625
2023-04-26T10:35:15.089Z,20.0085
2023-04-26T10:36:18.076Z,20.2033
2023-04-26T10:37:21.074Z,20.1492
2023-04-26T10:38:23.962Z,19.8526
2023-04-26T10:39:26.969Z,19.8081
2023-04-26T10:40:29.876Z,19.3036
2023-04-26T10:41:32.880Z,19.1651
2023-04-26T10:42:35.793Z,19.4650
2023-04-26T10:43:38.735Z,19.6072
2023-04-26T10:44:41.694Z,19.6526
2023-04-26T10:45:44.669Z,19.3870
2023-04-26T10:46:47.605Z,19.2551
2023-04-26T10:47:50.635Z,19.4673
2023-04-26T10:48:53.866Z,19.6889
2023-04-26T10:49:56.482Z,19.5690
2023-04-26T10:50:59.473Z,19.7456
2023-04-26T10:52:02.378Z,19.6047
2023-04-26T10:53:05.411Z,20.0120
2023-04-26T10:54:08.292Z,20.1063
2023-04-26T10:55:11.435Z,20.1831
2023-04-26T10:56:14.182Z,19.9607
2023-04-26T10:57:17.151Z,20.2269
2023-04-26T10:58:20.123Z,20.4021
2023-04-26T10:59:39.688Z,20.6517
2023-04-26T11:00:26.779Z,20.9095
2023-04-26T11:01:28.985Z,21.0255
2023-04-26T11:02:31.946Z,20.8865
2023-04-26T11:03:35.191Z,20.7049
2023-04-26T11:04:37.932Z,20.7006
2023-04-26T11:05:40.799Z,21.1434
2023-04-26T11:06:43.772Z,21.4902
2023-04-26T11:07:46.728Z,21.3831
2023-04-26T11:08:49.746Z,21.7235
2023-04-26T11:09:52.756Z,21.7584
2023-04-26T11:10:55.571Z,21.5764
2023-04-26T11:11:58.513Z,21.6239
2023-04-26T11:13:01.497Z,21.5103
2023-04-26T11:14:04.452Z,21.7346
2023-04-26T11:15:07.400Z,21.8864
2023-04-26T11:16:10.413Z,21.6999
2023-04-26T11:17:13.410Z,21.8562
2023-04-26T11:18:16.254Z,21.7063
2023-04-26T11:19:19.208Z,21.6354
2023-04-26T11:20:22.208Z,21.5232
2023-04-26T11:21:25.116Z,21.7116
2023-04-26T11:22:28.064Z,21.7005
2023-04-26T11:23:31.085Z,21.7313
2023-04-26T11:24:34.060Z,21.8946
2023-04-26T11:25:36.980Z,21.8178
2023-04-26T11:26:39.877Z,22.1438
2023-04-26T11:27:42.912Z,21.6358
2023-04-26T11:28:45.819Z,21.3260
2023-04-26T11:29:48.732Z,21.4049
2023-04-26T11:30:51.726Z,21.6272
2023-04-26T11:31:54.777Z,21.6467
2023-04-26T11:32:57.646Z,21.9269
2023-04-26T11:34:00.787Z,21.6845
2023-04-26T11:35:03.507Z,21.7106
2023-04-26T11:36:06.584Z,21.5191
2023-04-26T11:37:09.451Z,21.8083
2023-04-26T11:38:12.448Z,21.6385
2023-04-26T11:39:15.351Z,21.9384
2023-04-26T11:40:18.334Z,21.6278
2023-04-26T11:41:21.454Z,21.6257
2023-04-26T11:42:24.198Z,21.7161
2023-04-26T11:43:27.206Z,21.4939
2023-04-26T11:44:30.267Z,21.7159
2023-04-26T11:45:33.076Z,21.8478
2023-04-26T11:46:36.075Z,21.8168
2023-04-26T11:47:39.019Z,21.5175
2023-04-26T11:48:42.015Z,21.6598
2023-04-26T11:49:44.910Z,21.6463
2023-04-26T11:50:47.944Z,22.2321
2023-04-26T11:51:50.822Z,22.3482
2023-04-26T11:52:53.770Z,22.0756
2023-04-26T11:53:56.838Z,21.6927
2023-04-26T11:54:59.683Z,21.3336
2023-04-26T11:56:02.700Z,21.9073
2023-04-26T11:57:05.607Z,21.6007
2023-04-26T11:58:08.559Z,21.4179
2023-04-26T11:59:11.553Z,21.8268
2023-04-26T12:00:14.486Z,21.1857
2023-04-26T12:01:17.517Z,21.2264
2023-04-26T12:02:20.492Z,21.6249
2023-04-26T12:03:23.486Z,21.2556
2023-04-26T12:04:29.689Z,20.9571
2023-04-26T12:05:29.279Z,21.0206
2023-04-26T12:06:32.327Z,21.4752
2023-04-26T12:07:35.182Z,20.7392
2023-04-26T12:08:38.194Z,20.8006
2023-04-26T12:09:41.111Z,20.5962
2023-04-26T12:10:44.045Z,20.5358
2023-04-26T12:11:46.990Z,20.7961
2023-04-26T12:12:50.069Z,20.9978
2023-04-26T12:13:52.964Z,20.8895
2023-04-26T12:14:55.888Z,21.1931
2023-04-26T12:15:59.073Z,21.2209
2023-04-26T12:17:02.159Z,20.9869
2023-04-26T12:18:04.864Z,20.8047
2023-04-26T12:19:07.756Z,21.0196
2023-04-26T12:20:10.822Z,21.0058
2023-04-26T12:21:13.750Z,20.8641
2023-04-26T12:22:16.623Z,20.9785
2023-04-26T12:23:19.703Z,21.2048
2023-04-26T12:24:22.555Z,21.0894
2023-04-26T12:25:25.579Z,20.9173
2023-04-26T12:26:28.512Z,20.9503
2023-04-26T12:27:31.421Z,20.5465
2023-04-26T12:28:34.380Z,20.9158
2023-04-26T12:29:37.346Z,20.6675
2023-04-26T12:30:40.333Z,20.2885
2023-04-26T12:31:43.282Z,20.6537
2023-04-26T12:32:46.288Z,20.4991
2023-04-26T12:33:49.158Z,20.2891
2023-04-26T12:34:52.125Z,20.4475
2023-04-26T12:35:55.183Z,20.4052
2023-04-26T12:36:58.317Z,20.5703
2023-04-26T12:38:01.022Z,20.5463
2023-04-26T12:39:03.980Z,20.2152
2023-04-26T12:40:06.926Z,20.5062
2023-04-26T12:41:09.881Z,20.2813
2023-04-26T12:42:13.053Z,20.3754
2023-04-26T12:43:15.852Z,19.8923
2023-04-26T12:44:20.578Z,20.0011
2023-04-26T12:45:21.713Z,20.0993
2023-04-26T12:46:24.683Z,20.0414
2023-04-26T12:47:27.659Z,19.8892
2023-04-26T12:48:30.607Z,20.1260
2023-04-26T12:49:33.555Z,20.1757
2023-04-26T12:50:36.502Z,20.1655
2023-04-26T12:51:39.486Z,19.8387
2023-04-26T12:52:42.435Z,19.7355
2023-04-26T12:53:45.388Z,19.5022
2023-04-26T12:54:48.409Z,19.6396
2023-04-26T12:55:51.332Z,19.7787